createdAt,value
2018-07-12T00:00:40.660Z,150.97
2018-07-12T00:03:06.946Z,150.27
2018-07-12T00:05:33.258Z,147.97
2018-07-12T00:07:59.748Z,155.60
2018-07-12T00:10:26.170Z,147.30
2018-07-12T00:12:52.457Z,155.83
2018-07-12T00:15:18.734Z,150.23
2018-07-12T00:17:45.015Z,150.37
2018-07-12T00:20:11.454Z,157.30
2018-07-12T00:22:37.750Z,148.17
2018-07-12T00:25:04.039Z,150.67
2018-07-12T00:27:30.318Z,147.30
2018-07-12T00:29:56.600Z,149.60
2018-07-12T00:32:23.264Z,152.70
2018-07-12T00:34:49.549Z,148.80
2018-07-12T00:37:15.862Z,148.20
2018-07-12T00:39:42.153Z,146.97
2018-07-12T00:42:08.488Z,152.20
2018-07-12T00:44:34.756Z,144.63
2018-07-12T00:47:01.050Z,145.67
2018-07-12T00:49:27.322Z,145.93
2018-07-12T00:51:53.925Z,152.57
2018-07-12T00:54:20.198Z,149.63
2018-07-12T00:56:46.481Z,144.77
2018-07-12T00:59:12.774Z,143.90
2018-07-12T01:01:39.382Z,151.90
2018-07-12T01:04:05.667Z,152.47
2018-07-12T01:06:32.006Z,152.43
2018-07-12T01:08:58.292Z,147.07
2018-07-12T01:11:24.565Z,150.63
2018-07-12T01:13:50.965Z,154.73
2018-07-12T01:16:17.272Z,150.87
2018-07-12T01:18:43.561Z,145.90
2018-07-12T01:21:09.843Z,150.90
2018-07-12T01:23:36.128Z,148.00
2018-07-12T01:26:02.807Z,154.77
2018-07-12T01:28:29.092Z,147.83
2018-07-12T01:30:55.375Z,150.70
2018-07-12T01:33:21.677Z,155.70
2018-07-12T01:35:47.935Z,148.90
2018-07-12T01:38:14.193Z,145.43
2018-07-12T01:40:40.452Z,156.03
2018-07-12T01:43:06.731Z,156.83
2018-07-12T01:45:32.988Z,151.30
2018-07-12T01:47:59.245Z,144.03
2018-07-12T01:50:25.508Z,150.83
2018-07-12T01:52:51.760Z,149.30
2018-07-12T01:55:18.029Z,145.57
2018-07-12T01:57:44.286Z,148.43
2018-07-12T02:00:10.548Z,144.60
2018-07-12T02:02:36.808Z,144.67
2018-07-12T02:05:03.174Z,159.83
2018-07-12T02:07:29.539Z,148.27
2018-07-12T02:09:55.809Z,159.93
2018-07-12T02:12:22.396Z,147.43
2018-07-12T02:14:48.660Z,149.50
2018-07-12T02:17:14.917Z,149.93
2018-07-12T02:19:41.183Z,148.10
2018-07-12T02:22:07.441Z,148.43
2018-07-12T02:24:33.709Z,150.50
2018-07-12T02:26:59.964Z,150.43
2018-07-12T02:29:26.704Z,153.57
2018-07-12T02:31:52.965Z,147.67
2018-07-12T02:34:19.247Z,153.07
2018-07-12T02:36:45.505Z,149.70
2018-07-12T02:39:11.764Z,149.57
2018-07-12T02:41:38.143Z,150.53
2018-07-12T02:44:04.418Z,151.83
2018-07-12T02:46:30.696Z,143.37
2018-07-12T02:48:56.970Z,151.33
2018-07-12T02:51:23.297Z,150.70
2018-07-12T02:53:49.557Z,145.83
2018-07-12T02:56:15.821Z,149.10
2018-07-12T02:58:42.082Z,158.47
2018-07-12T03:01:08.362Z,149.27
2018-07-12T03:03:34.623Z,148.50
2018-07-12T03:06:02.723Z,151.63
2018-07-12T03:08:29.113Z,151.20
2018-07-12T03:10:55.381Z,152.27
2018-07-12T03:13:21.650Z,149.93
2018-07-12T03:15:49.637Z,150.83
2018-07-12T03:18:15.920Z,145.50
2018-07-12T03:20:42.191Z,146.17
2018-07-12T03:23:08.462Z,151.43
2018-07-12T03:25:34.734Z,142.63
2018-07-12T03:28:04.384Z,152.63
2018-07-12T03:30:30.653Z,154.67
2018-07-12T03:32:56.926Z,146.30
2018-07-12T03:35:23.193Z,153.57
2018-07-12T03:37:49.460Z,143.17
2018-07-12T03:40:15.720Z,145.17
2018-07-12T03:42:41.985Z,146.23
2018-07-12T03:45:08.247Z,139.30
2018-07-12T03:47:34.509Z,156.03
2018-07-12T03:50:00.769Z,151.47
2018-07-12T03:52:27.029Z,153.33
2018-07-12T03:54:53.417Z,147.97
2018-07-12T03:57:19.765Z,147.37
2018-07-12T03:59:46.049Z,157.83
2018-07-12T04:02:12.322Z,146.20
2018-07-12T04:04:38.588Z,145.43
2018-07-12T04:07:04.860Z,145.40
2018-07-12T04:09:31.121Z,153.23
2018-07-12T04:11:57.388Z,150.57
2018-07-12T04:14:23.658Z,147.70
2018-07-12T04:16:49.925Z,144.13
2018-07-12T04:19:16.189Z,145.77
2018-07-12T04:21:42.453Z,152.97
2018-07-12T04:24:08.721Z,142.40
2018-07-12T04:26:35.107Z,155.90
2018-07-12T04:29:01.382Z,151.60
2018-07-12T04:31:27.650Z,143.10
2018-07-12T04:33:53.957Z,142.93
2018-07-12T04:36:20.333Z,144.90
2018-07-12T04:38:46.607Z,148.33
2018-07-12T04:41:12.881Z,152.10
2018-07-12T04:43:39.151Z,149.50
2018-07-12T04:46:05.449Z,148.90
2018-07-12T04:48:31.737Z,146.93
2018-07-12T04:50:57.996Z,149.80
2018-07-12T04:53:24.277Z,152.40
2018-07-12T04:55:50.552Z,151.40
2018-07-12T04:58:16.965Z,154.90
2018-07-12T05:00:43.183Z,152.73
2018-07-12T05:03:09.426Z,155.73
2018-07-12T05:05:35.685Z,159.37
2018-07-12T05:08:02.166Z,159.90
2018-07-12T05:10:28.422Z,159.97
2018-07-12T05:12:54.694Z,162.37
2018-07-12T05:15:20.957Z,156.50
2018-07-12T05:17:47.232Z,161.87
2018-07-12T05:20:13.510Z,162.40
2018-07-12T05:22:39.898Z,156.20
2018-07-12T05:25:06.169Z,154.70
2018-07-12T05:27:32.440Z,153.50
2018-07-12T05:29:58.715Z,164.30
2018-07-12T05:32:24.992Z,155.20
2018-07-12T05:34:51.274Z,171.03
2018-07-12T05:37:18.473Z,161.53
2018-07-12T05:39:45.673Z,167.37
2018-07-12T05:42:12.874Z,163.37
2018-07-12T05:44:40.106Z,171.60
2018-07-12T05:47:07.310Z,156.13
2018-07-12T05:49:34.512Z,155.53
2018-07-12T05:52:01.722Z,159.87
2018-07-12T05:54:28.936Z,162.87
2018-07-12T05:56:56.144Z,169.50
2018-07-12T05:59:23.349Z,162.27
2018-07-12T06:02:02.214Z,163.43
2018-07-12T06:04:29.447Z,172.77
2018-07-12T06:06:56.652Z,168.90
2018-07-12T06:09:23.854Z,159.13
2018-07-12T06:11:51.153Z,152.90
2018-07-12T06:14:18.537Z,163.93
2018-07-12T06:16:45.776Z,162.83
2018-07-12T06:19:12.970Z,162.17
2018-07-12T06:21:40.175Z,172.73
2018-07-12T06:24:07.393Z,155.13
2018-07-12T06:26:34.585Z,155.07
2018-07-12T06:29:01.808Z,163.00
2018-07-12T06:31:29.017Z,152.80
2018-07-12T06:33:56.211Z,158.77
2018-07-12T06:36:23.410Z,163.00
2018-07-12T06:38:50.607Z,167.93
2018-07-12T06:41:17.805Z,169.37
2018-07-12T06:43:45.090Z,161.97
2018-07-12T06:46:12.287Z,153.30
2018-07-12T06:48:39.509Z,154.50
2018-07-12T06:51:06.730Z,159.73
2018-07-12T06:53:33.997Z,160.37
2018-07-12T06:56:01.183Z,156.93
2018-07-12T06:58:28.358Z,157.50
2018-07-12T07:00:55.561Z,156.93
2018-07-12T07:03:22.756Z,162.03
2018-07-12T07:05:49.934Z,156.03
2018-07-12T07:08:17.141Z,160.67
2018-07-12T07:10:44.327Z,155.60
2018-07-12T07:13:11.529Z,162.87
2018-07-12T07:15:38.696Z,164.70
2018-07-12T07:18:05.867Z,152.70
2018-07-12T07:20:33.070Z,162.90
2018-07-12T07:23:00.239Z,163.77
2018-07-12T07:25:27.402Z,160.43
2018-07-12T07:27:54.593Z,150.83
2018-07-12T07:30:21.779Z,169.57
2018-07-12T07:32:49.049Z,168.13
2018-07-12T07:35:16.254Z,171.57
2018-07-12T07:37:43.434Z,171.13
2018-07-12T07:40:10.630Z,156.47
2018-07-12T07:42:37.796Z,162.80
2018-07-12T07:45:05.371Z,169.17
2018-07-12T07:47:32.545Z,170.87
2018-07-12T07:49:59.708Z,177.30
2018-07-12T07:52:26.881Z,168.43
2018-07-12T07:54:54.053Z,166.70
2018-07-12T07:57:21.238Z,169.47
2018-07-12T07:59:48.397Z,170.53
2018-07-12T08:02:15.577Z,170.20
2018-07-12T08:04:42.748Z,173.10
2018-07-12T08:07:09.929Z,174.07
2018-07-12T08:09:37.156Z,172.27
2018-07-12T08:12:04.281Z,180.77
2018-07-12T08:14:31.458Z,189.20
2018-07-12T08:16:58.646Z,198.97
2018-07-12T08:19:25.815Z,205.07
2018-07-12T08:22:01.970Z,234.40
2018-07-12T08:24:29.141Z,244.27
2018-07-12T08:26:56.332Z,278.77
2018-07-12T08:29:23.525Z,317.07
2018-07-12T08:31:50.703Z,354.50
2018-07-12T08:34:17.869Z,391.93
2018-07-12T08:36:45.044Z,444.80
2018-07-12T08:39:12.202Z,494.43
2018-07-12T08:41:39.403Z,500.37
2018-07-12T08:44:06.589Z,461.00
2018-07-12T08:46:33.765Z,442.77
2018-07-12T08:49:00.962Z,430.60
2018-07-12T08:51:28.143Z,454.00
2018-07-12T08:53:55.329Z,399.43
2018-07-12T08:56:22.559Z,372.77
2018-07-12T08:58:49.776Z,356.97
2018-07-12T09:01:16.969Z,347.03
2018-07-12T09:03:44.181Z,344.67
2018-07-12T09:06:11.387Z,353.07
2018-07-12T09:08:38.584Z,413.57
2018-07-12T09:11:06.096Z,453.10
2018-07-12T09:13:33.292Z,486.43
2018-07-12T09:16:00.494Z,513.83
2018-07-12T09:18:27.721Z,518.43
2018-07-12T09:20:54.909Z,508.50
2018-07-12T09:23:22.106Z,566.73
2018-07-12T09:25:49.304Z,547.13
2018-07-12T09:28:16.498Z,588.27
2018-07-12T09:30:43.755Z,625.63
2018-07-12T09:33:10.925Z,590.70
2018-07-12T09:35:38.133Z,590.73
2018-07-12T09:38:30.576Z,553.33
2018-07-12T09:40:57.793Z,543.70
2018-07-12T09:43:25.000Z,566.87
2018-07-12T09:45:52.205Z,545.67
2018-07-12T09:48:19.398Z,545.00
2018-07-12T09:50:46.592Z,534.10
2018-07-12T09:53:13.805Z,530.50
2018-07-12T09:55:41.086Z,543.10
2018-07-12T09:58:19.645Z,519.83
2018-07-12T10:00:52.728Z,507.17
2018-07-12T10:03:20.617Z,509.00
2018-07-12T10:05:53.656Z,498.77
2018-07-12T10:08:26.710Z,490.57
2018-07-12T10:10:59.695Z,493.70
2018-07-12T10:13:31.477Z,434.43
2018-07-12T10:16:08.216Z,425.27
2018-07-12T10:18:35.456Z,402.40
2018-07-12T10:21:02.681Z,407.70
2018-07-12T10:23:29.877Z,434.20
2018-07-12T10:25:57.444Z,429.33
2018-07-12T10:28:24.647Z,485.20
2018-07-12T10:30:51.848Z,546.23
2018-07-12T10:33:19.150Z,578.57
2018-07-12T10:35:47.242Z,602.37
2018-07-12T10:38:14.460Z,598.60
2018-07-12T10:40:42.078Z,609.10
2018-07-12T10:43:09.273Z,550.47
2018-07-12T10:45:36.507Z,558.40
2018-07-12T10:48:03.767Z,552.60
2018-07-12T10:50:30.977Z,530.20
2018-07-12T10:52:58.145Z,508.57
2018-07-12T10:55:25.417Z,489.27
2018-07-12T10:57:52.624Z,478.53
2018-07-12T11:00:19.813Z,492.23
2018-07-12T11:02:47.028Z,546.77
2018-07-12T11:05:14.245Z,551.23
2018-07-12T11:07:41.413Z,599.07
2018-07-12T11:10:08.600Z,596.37
2018-07-12T11:12:35.764Z,620.97
2018-07-12T11:15:02.983Z,611.50
2018-07-12T11:17:30.159Z,643.43
2018-07-12T11:19:57.490Z,592.83
2018-07-12T11:22:24.672Z,591.93
2018-07-12T11:24:51.879Z,519.37
2018-07-12T11:27:19.054Z,504.73
2018-07-12T11:29:58.462Z,473.70
2018-07-12T11:32:25.665Z,525.10
2018-07-12T11:34:52.837Z,527.33
2018-07-12T11:37:22.783Z,608.87
2018-07-12T11:39:50.138Z,661.80
2018-07-12T11:42:17.304Z,691.37
2018-07-12T11:44:44.481Z,678.33
2018-07-12T11:47:11.833Z,711.57
2018-07-12T11:49:39.012Z,705.17
2018-07-12T11:52:06.466Z,717.47
2018-07-12T11:54:33.641Z,698.40
2018-07-12T11:57:00.854Z,715.77
2018-07-12T11:59:28.073Z,696.03
2018-07-12T12:01:55.380Z,697.73
2018-07-12T12:04:22.457Z,696.47
2018-07-12T12:06:49.694Z,673.67
2018-07-12T12:09:16.852Z,670.20
2018-07-12T12:11:44.093Z,662.47
2018-07-12T12:14:11.436Z,666.00
2018-07-12T12:16:38.641Z,652.47
2018-07-12T12:19:05.869Z,628.67
2018-07-12T12:21:33.081Z,592.00
2018-07-12T12:24:00.502Z,551.93
2018-07-12T12:26:27.701Z,516.13
2018-07-12T12:28:54.897Z,537.57
2018-07-12T12:31:22.111Z,515.60
2018-07-12T12:33:49.553Z,537.83
2018-07-12T12:36:16.773Z,520.40
2018-07-12T12:38:43.969Z,510.00
2018-07-12T12:41:11.187Z,523.03
2018-07-12T12:43:38.388Z,497.37
2018-07-12T12:46:05.594Z,503.10
2018-07-12T12:48:32.821Z,498.30
2018-07-12T12:51:00.143Z,500.77
2018-07-12T12:53:27.237Z,568.73
2018-07-12T12:55:54.444Z,580.63
2018-07-12T12:58:21.633Z,607.67
2018-07-12T13:00:48.865Z,621.23
2018-07-12T13:03:16.070Z,679.10
2018-07-12T13:05:43.307Z,684.97
2018-07-12T13:08:10.527Z,665.13
2018-07-12T13:10:37.753Z,686.10
2018-07-12T13:13:05.258Z,709.27
2018-07-12T13:15:32.448Z,709.60
2018-07-12T13:17:59.664Z,685.57
2018-07-12T13:20:26.878Z,647.90
2018-07-12T13:22:54.069Z,607.80
2018-07-12T13:25:21.286Z,601.90
2018-07-12T13:27:48.522Z,618.47
2018-07-12T13:30:15.665Z,614.97
2018-07-12T13:32:42.865Z,637.27
2018-07-12T13:35:10.056Z,610.27
2018-07-12T13:37:37.261Z,587.80
2018-07-12T13:40:04.526Z,571.90
2018-07-12T13:42:31.746Z,586.20
2018-07-12T13:44:58.949Z,584.70
2018-07-12T13:47:26.147Z,604.30
2018-07-12T13:49:53.348Z,615.17
2018-07-12T13:52:20.564Z,628.00
2018-07-12T13:54:47.755Z,668.60
2018-07-12T13:57:14.928Z,662.77
2018-07-12T13:59:42.105Z,707.10
2018-07-12T14:02:09.300Z,701.30
2018-07-12T14:04:36.477Z,695.63
2018-07-12T14:07:03.660Z,719.13
2018-07-12T14:09:30.839Z,740.23
2018-07-12T14:11:58.039Z,753.60
2018-07-12T14:14:25.215Z,771.00
2018-07-12T14:16:52.385Z,745.53
2018-07-12T14:19:19.566Z,788.00
2018-07-12T14:21:46.753Z,762.37
2018-07-12T14:24:13.924Z,764.70
2018-07-12T14:26:41.095Z,750.37
2018-07-12T14:29:08.289Z,757.27
2018-07-12T14:31:35.475Z,730.20
2018-07-12T14:34:02.694Z,705.50
2018-07-12T14:36:29.866Z,652.53
2018-07-12T14:38:57.076Z,601.63
2018-07-12T14:41:24.261Z,592.20
2018-07-12T14:43:51.461Z,537.57
2018-07-12T14:46:18.641Z,565.83
2018-07-12T14:48:45.812Z,527.90
2018-07-12T14:51:12.977Z,547.27
2018-07-12T14:53:40.173Z,524.80
2018-07-12T14:56:07.390Z,533.30
2018-07-12T14:58:34.607Z,490.57
2018-07-12T15:01:01.810Z,467.57
2018-07-12T15:03:29.019Z,447.97
2018-07-12T15:05:56.234Z,470.70
2018-07-12T15:08:23.434Z,407.70
2018-07-12T15:10:50.625Z,416.80
2018-07-12T15:13:17.853Z,454.73
2018-07-12T15:15:45.229Z,451.57
2018-07-12T15:18:12.465Z,479.87
2018-07-12T15:20:39.697Z,558.60
2018-07-12T15:23:06.982Z,533.87
2018-07-12T15:25:34.204Z,556.30
2018-07-12T15:28:01.550Z,565.60
2018-07-12T15:30:28.636Z,563.27
2018-07-12T15:32:55.825Z,554.37
2018-07-12T15:35:23.031Z,529.43
2018-07-12T15:37:50.235Z,520.63
2018-07-12T15:40:17.439Z,528.37
2018-07-12T15:42:44.641Z,501.57
2018-07-12T15:45:11.886Z,479.20
2018-07-12T15:47:39.265Z,497.17
2018-07-12T15:50:06.478Z,455.00
2018-07-12T15:52:33.719Z,470.60
2018-07-12T15:55:00.915Z,461.53
2018-07-12T15:57:28.091Z,454.97
2018-07-12T15:59:55.293Z,452.73
2018-07-12T16:02:22.457Z,479.60
2018-07-12T16:04:49.635Z,487.20
2018-07-12T16:07:16.801Z,513.20
2018-07-12T16:09:43.976Z,523.17
2018-07-12T16:12:11.153Z,551.83
2018-07-12T16:14:38.741Z,546.10
2018-07-12T16:17:06.346Z,574.53
2018-07-12T16:19:33.541Z,554.27
2018-07-12T16:22:00.710Z,572.73
2018-07-12T16:24:27.896Z,577.33
2018-07-12T16:26:55.077Z,551.07
2018-07-12T16:29:22.248Z,550.00
2018-07-12T16:31:49.429Z,576.20
2018-07-12T16:34:16.896Z,575.13
2018-07-12T16:36:44.069Z,543.47
2018-07-12T16:39:11.254Z,537.87
2018-07-12T16:41:38.506Z,543.60
2018-07-12T16:44:05.699Z,564.17
2018-07-12T16:46:32.891Z,566.03
2018-07-12T16:49:00.050Z,533.07
2018-07-12T16:51:27.238Z,514.60
2018-07-12T16:53:54.416Z,511.30
2018-07-12T16:56:21.640Z,500.73
2018-07-12T16:58:49.132Z,512.03
2018-07-12T17:01:16.329Z,499.57
2018-07-12T17:03:43.524Z,470.80
2018-07-12T17:06:10.783Z,516.17
2018-07-12T17:08:37.986Z,496.83
2018-07-12T17:11:05.190Z,512.13
2018-07-12T17:13:32.417Z,503.77
2018-07-12T17:15:59.765Z,494.47
2018-07-12T17:18:26.959Z,522.27
2018-07-12T17:20:54.158Z,542.63
2018-07-12T17:23:21.352Z,494.60
2018-07-12T17:25:48.552Z,489.67
2018-07-12T17:28:15.752Z,483.80
2018-07-12T17:30:42.956Z,489.90
2018-07-12T17:33:10.231Z,486.90
2018-07-12T17:35:37.372Z,423.97
2018-07-12T17:38:04.763Z,399.10
2018-07-12T17:40:31.966Z,411.93
2018-07-12T17:42:59.191Z,412.73
2018-07-12T17:45:26.415Z,369.40
2018-07-12T17:47:53.632Z,351.20
2018-07-12T17:50:21.626Z,351.70
2018-07-12T17:52:48.833Z,342.83
2018-07-12T17:55:16.123Z,340.80
2018-07-12T17:57:43.337Z,312.73
2018-07-12T18:00:10.573Z,299.60
2018-07-12T18:02:37.848Z,315.47
2018-07-12T18:05:05.550Z,325.77
2018-07-12T18:07:33.053Z,309.63
2018-07-12T18:10:00.266Z,303.50
2018-07-12T18:12:27.471Z,295.77
2018-07-12T18:14:54.677Z,313.60
2018-07-12T18:17:21.904Z,281.00
2018-07-12T18:19:49.207Z,294.30
2018-07-12T18:22:16.467Z,286.33
2018-07-12T18:24:43.668Z,278.13
2018-07-12T18:27:10.913Z,266.73
2018-07-12T18:29:38.109Z,290.70
2018-07-12T18:32:05.368Z,298.87
2018-07-12T18:34:32.589Z,272.37
2018-07-12T18:36:59.792Z,280.60
2018-07-12T18:39:27.000Z,270.17
2018-07-12T18:41:54.206Z,274.83
2018-07-12T18:44:21.466Z,269.10
2018-07-12T18:46:48.650Z,282.50
2018-07-12T18:49:15.857Z,257.43
2018-07-12T18:51:43.085Z,254.50
2018-07-12T18:54:10.352Z,256.90
2018-07-12T18:56:37.570Z,259.07
2018-07-12T18:59:04.786Z,255.67
2018-07-12T19:01:32.040Z,241.37
2018-07-12T19:03:59.249Z,256.00
2018-07-12T19:06:26.449Z,240.10
2018-07-12T19:08:53.796Z,241.20
2018-07-12T19:11:20.997Z,233.13
2018-07-12T19:13:48.286Z,246.20
2018-07-12T19:16:16.068Z,231.03
2018-07-12T19:18:43.283Z,228.83
2018-07-12T19:21:10.492Z,228.13
2018-07-12T19:23:37.802Z,222.87
2018-07-12T19:26:04.994Z,236.07
2018-07-12T19:28:32.423Z,231.73
2018-07-12T19:30:59.617Z,211.30
2018-07-12T19:33:26.849Z,208.67
2018-07-12T19:35:54.224Z,223.37
2018-07-12T19:38:21.477Z,217.23
2018-07-12T19:40:48.692Z,206.27
2018-07-12T19:43:15.995Z,205.10
2018-07-12T19:45:43.318Z,216.00
2018-07-12T19:48:10.578Z,204.23
2018-07-12T19:50:37.849Z,203.70
2018-07-12T19:53:05.040Z,203.37
2018-07-12T19:55:32.499Z,192.10
2018-07-12T19:57:59.828Z,197.07
2018-07-12T20:00:27.139Z,203.77
2018-07-12T20:02:54.351Z,224.43
2018-07-12T20:05:21.562Z,201.93
2018-07-12T20:07:48.783Z,190.33
2018-07-12T20:10:16.196Z,198.63
2018-07-12T20:12:43.448Z,194.23
2018-07-12T20:15:10.647Z,196.87
2018-07-12T20:17:38.221Z,198.47
2018-07-12T20:20:06.376Z,191.90
2018-07-12T20:22:33.569Z,189.20
2018-07-12T20:25:00.769Z,180.73
2018-07-12T20:27:28.181Z,186.63
2018-07-12T20:29:55.444Z,186.47
2018-07-12T20:32:22.690Z,180.20
2018-07-12T20:34:49.897Z,194.70
2018-07-12T20:37:17.124Z,179.30
2018-07-12T20:39:44.349Z,188.27
2018-07-12T20:42:11.748Z,192.03
2018-07-12T20:44:38.988Z,199.10
2018-07-12T20:47:06.328Z,178.97
2018-07-12T20:49:33.561Z,197.03
2018-07-12T20:52:00.881Z,176.17
2018-07-12T20:54:28.107Z,189.97
2018-07-12T20:56:55.538Z,202.43
2018-07-12T20:59:22.821Z,192.70
2018-07-12T21:01:50.031Z,181.73
2018-07-12T21:04:17.248Z,177.10
2018-07-12T21:06:44.565Z,170.83
2018-07-12T21:09:11.741Z,172.87
2018-07-12T21:11:38.958Z,192.00
2018-07-12T21:14:06.152Z,176.73
2018-07-12T21:16:33.321Z,185.03
2018-07-12T21:19:00.504Z,194.87
2018-07-12T21:21:27.716Z,178.17
2018-07-12T21:23:54.883Z,185.03
2018-07-12T21:26:22.099Z,169.07
2018-07-12T21:28:49.272Z,169.73
2018-07-12T21:31:16.476Z,171.20
2018-07-12T21:33:43.754Z,171.00
2018-07-12T21:36:11.286Z,174.10
2018-07-12T21:38:38.503Z,189.03
2018-07-12T21:41:05.913Z,189.07
2018-07-12T21:43:33.367Z,176.37
2018-07-12T21:46:00.574Z,178.70
2018-07-12T21:48:27.777Z,188.87
2018-07-12T21:50:55.000Z,169.03
2018-07-12T21:53:22.230Z,164.27
2018-07-12T21:55:49.450Z,165.63
2018-07-12T21:58:16.642Z,174.23
2018-07-12T22:00:43.876Z,167.77
2018-07-12T22:03:11.102Z,163.57
2018-07-12T22:05:38.290Z,168.77
2018-07-12T22:08:10.533Z,163.03
2018-07-12T22:10:37.729Z,170.23
2018-07-12T22:13:04.930Z,158.90
2018-07-12T22:15:32.305Z,161.50
2018-07-12T22:17:59.687Z,160.80
2018-07-12T22:20:26.881Z,170.27
2018-07-12T22:22:54.108Z,159.87
2018-07-12T22:25:21.306Z,164.57
2018-07-12T22:27:48.506Z,162.70
2018-07-12T22:30:15.709Z,173.70
2018-07-12T22:32:42.919Z,176.47
2018-07-12T22:35:10.129Z,170.10
2018-07-12T22:37:37.346Z,160.27
2018-07-12T22:40:04.544Z,173.77
2018-07-12T22:42:31.757Z,163.50
2018-07-12T22:44:58.955Z,182.87
2018-07-12T22:47:26.148Z,160.47
2018-07-12T22:49:53.357Z,171.50
2018-07-12T22:52:20.985Z,164.40
2018-07-12T22:54:48.750Z,172.73
2018-07-12T22:57:15.990Z,169.43
2018-07-12T22:59:43.216Z,159.27
2018-07-12T23:02:10.409Z,158.43
2018-07-12T23:04:37.617Z,160.77
2018-07-12T23:07:04.983Z,159.43
2018-07-12T23:09:32.176Z,152.30
2018-07-12T23:11:59.375Z,170.97
2018-07-12T23:14:26.586Z,156.73
2018-07-12T23:16:53.782Z,167.83
2018-07-12T23:19:20.984Z,164.90
2018-07-12T23:21:48.170Z,152.30
2018-07-12T23:24:15.371Z,167.10
2018-07-12T23:26:42.562Z,173.30
2018-07-12T23:29:09.775Z,171.90
2018-07-12T23:31:36.990Z,167.87
2018-07-12T23:34:04.237Z,167.80
2018-07-12T23:36:31.450Z,153.80
2018-07-12T23:38:58.690Z,166.03
2018-07-12T23:41:25.913Z,152.60
2018-07-12T23:43:53.117Z,166.50
2018-07-12T23:46:20.323Z,160.17
2018-07-12T23:48:47.522Z,163.83
2018-07-12T23:51:14.744Z,169.80
2018-07-12T23:53:41.945Z,160.00
2018-07-12T23:56:09.131Z,153.20
2018-07-12T23:58:36.300Z,155.80
